Terminal Aerodrome Forecast
Issued by NWS Norman, OK

Home | Current Version | Previous Version | Text Only | Print | Product List | Glossary On
Versions: 1 2 3 4 5 6 7 8 9 10 11 12 13 14 15 16 17 18 19 20 21 22 23
920
FTUS44 KOUN 212335
TAFOKC
TAF
KOKC 212335Z 2200/2224 18017G25KT P6SM FEW019 SCT024 OVC050
     FM220100 VRB25G35KT 2SM +TSRA BKN025CB OVC050
     FM220300 35020G27KT 6SM -TSRA BKN035CB BKN070
     FM220600 36020G27KT P6SM BKN250
     FM221200 31008KT P6SM SKC=

USA.gov is the U.S. government's official web portal to all federal, state and local government web resources and services.